sensor_id;sensor_type;location;lat;lon;timestamp;P1;durP1;ratioP1;P2;durP2;ratioP2
63801;SDS011;49949;43.060;25.624;2023-07-13T00:00:24;24.73;;;11.32;;
63801;SDS011;49949;43.060;25.624;2023-07-13T00:02:50;18.40;;;11.65;;
63801;SDS011;49949;43.060;25.624;2023-07-13T00:05:18;20.08;;;12.90;;
63801;SDS011;49949;43.060;25.624;2023-07-13T00:07:48;27.38;;;12.65;;
63801;SDS011;49949;43.060;25.624;2023-07-13T00:10:15;21.38;;;11.60;;
63801;SDS011;49949;43.060;25.624;2023-07-13T00:12:41;17.88;;;12.35;;
63801;SDS011;49949;43.060;25.624;2023-07-13T00:15:09;19.85;;;11.45;;
63801;SDS011;49949;43.060;25.624;2023-07-13T00:17:51;18.75;;;12.02;;
63801;SDS011;49949;43.060;25.624;2023-07-13T00:20:19;23.83;;;11.83;;
63801;SDS011;49949;43.060;25.624;2023-07-13T00:22:47;24.42;;;12.70;;
63801;SDS011;49949;43.060;25.624;2023-07-13T00:25:13;21.08;;;11.85;;
63801;SDS011;49949;43.060;25.624;2023-07-13T00:27:41;21.83;;;12.15;;
63801;SDS011;49949;43.060;25.624;2023-07-13T00:30:07;20.65;;;12.10;;
63801;SDS011;49949;43.060;25.624;2023-07-13T00:32:34;20.85;;;11.40;;
63801;SDS011;49949;43.060;25.624;2023-07-13T00:35:00;20.88;;;11.82;;
63801;SDS011;49949;43.060;25.624;2023-07-13T00:37:26;16.17;;;11.27;;
63801;SDS011;49949;43.060;25.624;2023-07-13T00:39:52;18.75;;;12.00;;
63801;SDS011;49949;43.060;25.624;2023-07-13T00:42:18;24.65;;;12.32;;
63801;SDS011;49949;43.060;25.624;2023-07-13T00:47:28;18.02;;;11.32;;
63801;SDS011;49949;43.060;25.624;2023-07-13T00:49:53;20.38;;;12.07;;
63801;SDS011;49949;43.060;25.624;2023-07-13T00:52:19;21.10;;;11.75;;
63801;SDS011;49949;43.060;25.624;2023-07-13T00:54:45;16.60;;;11.40;;
63801;SDS011;49949;43.060;25.624;2023-07-13T00:57:16;18.85;;;11.18;;
63801;SDS011;49949;43.060;25.624;2023-07-13T00:59:47;19.90;;;12.18;;
63801;SDS011;49949;43.060;25.624;2023-07-13T01:02:16;20.23;;;11.73;;
63801;SDS011;49949;43.060;25.624;2023-07-13T01:04:42;22.25;;;11.50;;
63801;SDS011;49949;43.060;25.624;2023-07-13T01:07:09;16.13;;;11.45;;
63801;SDS011;49949;43.060;25.624;2023-07-13T01:09:35;21.95;;;12.38;;
63801;SDS011;49949;43.060;25.624;2023-07-13T01:12:01;21.38;;;11.80;;
63801;SDS011;49949;43.060;25.624;2023-07-13T01:14:28;25.08;;;11.98;;
63801;SDS011;49949;43.060;25.624;2023-07-13T01:16:54;17.80;;;10.82;;
63801;SDS011;49949;43.060;25.624;2023-07-13T01:21:51;26.27;;;12.07;;
63801;SDS011;49949;43.060;25.624;2023-07-13T01:24:17;29.63;;;11.27;;
63801;SDS011;49949;43.060;25.624;2023-07-13T01:26:43;18.83;;;11.18;;
63801;SDS011;49949;43.060;25.624;2023-07-13T01:29:09;23.83;;;11.85;;
63801;SDS011;49949;43.060;25.624;2023-07-13T01:31:34;16.35;;;10.95;;
63801;SDS011;49949;43.060;25.624;2023-07-13T01:34:00;19.80;;;11.85;;
63801;SDS011;49949;43.060;25.624;2023-07-13T01:36:26;20.00;;;11.85;;
63801;SDS011;49949;43.060;25.624;2023-07-13T01:38:51;34.92;;;14.98;;
63801;SDS011;49949;43.060;25.624;2023-07-13T01:41:17;22.67;;;13.95;;
63801;SDS011;49949;43.060;25.624;2023-07-13T01:43:43;21.13;;;11.95;;
63801;SDS011;49949;43.060;25.624;2023-07-13T01:46:09;27.25;;;12.23;;
63801;SDS011;49949;43.060;25.624;2023-07-13T01:48:34;18.80;;;11.52;;
63801;SDS011;49949;43.060;25.624;2023-07-13T01:51:00;19.65;;;12.00;;
63801;SDS011;49949;43.060;25.624;2023-07-13T01:53:26;18.13;;;11.63;;
63801;SDS011;49949;43.060;25.624;2023-07-13T01:55:51;16.98;;;11.57;;
63801;SDS011;49949;43.060;25.624;2023-07-13T01:58:17;22.35;;;11.15;;
63801;SDS011;49949;43.060;25.624;2023-07-13T02:00:43;17.80;;;11.48;;
63801;SDS011;49949;43.060;25.624;2023-07-13T02:03:08;20.40;;;11.38;;
63801;SDS011;49949;43.060;25.624;2023-07-13T02:05:34;19.17;;;10.95;;
63801;SDS011;49949;43.060;25.624;2023-07-13T02:08:01;17.83;;;11.93;;
63801;SDS011;49949;43.060;25.624;2023-07-13T02:10:27;19.40;;;12.23;;
63801;SDS011;49949;43.060;25.624;2023-07-13T02:12:53;21.98;;;11.38;;
63801;SDS011;49949;43.060;25.624;2023-07-13T02:15:19;17.45;;;11.45;;
63801;SDS011;49949;43.060;25.624;2023-07-13T02:17:45;18.50;;;11.90;;
63801;SDS011;49949;43.060;25.624;2023-07-13T02:20:11;23.38;;;12.07;;
63801;SDS011;49949;43.060;25.624;2023-07-13T02:22:37;23.15;;;11.13;;
63801;SDS011;49949;43.060;25.624;2023-07-13T02:25:03;23.65;;;11.60;;
63801;SDS011;49949;43.060;25.624;2023-07-13T02:27:29;21.63;;;11.82;;
63801;SDS011;49949;43.060;25.624;2023-07-13T02:29:54;26.38;;;12.60;;
63801;SDS011;49949;43.060;25.624;2023-07-13T02:32:20;21.90;;;12.38;;
63801;SDS011;49949;43.060;25.624;2023-07-13T02:34:46;20.17;;;11.40;;
63801;SDS011;49949;43.060;25.624;2023-07-13T02:37:12;15.13;;;11.38;;
63801;SDS011;49949;43.060;25.624;2023-07-13T02:39:37;18.75;;;12.10;;
63801;SDS011;49949;43.060;25.624;2023-07-13T02:42:03;21.55;;;11.98;;
63801;SDS011;49949;43.060;25.624;2023-07-13T02:44:29;21.48;;;11.82;;
63801;SDS011;49949;43.060;25.624;2023-07-13T02:46:55;26.60;;;12.10;;
63801;SDS011;49949;43.060;25.624;2023-07-13T02:49:20;22.20;;;12.07;;
63801;SDS011;49949;43.060;25.624;2023-07-13T02:51:46;19.75;;;12.60;;
63801;SDS011;49949;43.060;25.624;2023-07-13T02:54:12;21.95;;;12.35;;
63801;SDS011;49949;43.060;25.624;2023-07-13T02:56:38;20.30;;;11.75;;
63801;SDS011;49949;43.060;25.624;2023-07-13T02:59:04;26.15;;;12.68;;
63801;SDS011;49949;43.060;25.624;2023-07-13T03:01:30;24.48;;;12.20;;
63801;SDS011;49949;43.060;25.624;2023-07-13T03:03:57;23.38;;;12.48;;
63801;SDS011;49949;43.060;25.624;2023-07-13T03:06:23;21.17;;;12.38;;
63801;SDS011;49949;43.060;25.624;2023-07-13T03:08:49;25.20;;;13.20;;
63801;SDS011;49949;43.060;25.624;2023-07-13T03:11:17;27.40;;;11.85;;
63801;SDS011;49949;43.060;25.624;2023-07-13T03:13:44;21.80;;;12.30;;
63801;SDS011;49949;43.060;25.624;2023-07-13T03:16:11;23.75;;;14.73;;
63801;SDS011;49949;43.060;25.624;2023-07-13T03:18:37;23.48;;;13.90;;
63801;SDS011;49949;43.060;25.624;2023-07-13T03:21:04;32.38;;;12.25;;
63801;SDS011;49949;43.060;25.624;2023-07-13T03:23:30;21.17;;;12.02;;
63801;SDS011;49949;43.060;25.624;2023-07-13T03:26:07;25.15;;;12.80;;
63801;SDS011;49949;43.060;25.624;2023-07-13T03:28:35;24.42;;;12.30;;
63801;SDS011;49949;43.060;25.624;2023-07-13T03:31:09;28.92;;;12.32;;
63801;SDS011;49949;43.060;25.624;2023-07-13T03:33:41;27.98;;;12.65;;
63801;SDS011;49949;43.060;25.624;2023-07-13T03:36:11;21.55;;;12.35;;
63801;SDS011;49949;43.060;25.624;2023-07-13T03:38:44;18.95;;;11.77;;
63801;SDS011;49949;43.060;25.624;2023-07-13T03:41:18;23.17;;;11.57;;
63801;SDS011;49949;43.060;25.624;2023-07-13T03:43:44;22.08;;;10.95;;
63801;SDS011;49949;43.060;25.624;2023-07-13T03:46:10;20.08;;;11.35;;
63801;SDS011;49949;43.060;25.624;2023-07-13T03:48:36;22.83;;;11.85;;
63801;SDS011;49949;43.060;25.624;2023-07-13T03:51:01;26.20;;;10.88;;
63801;SDS011;49949;43.060;25.624;2023-07-13T03:53:27;26.98;;;10.75;;
63801;SDS011;49949;43.060;25.624;2023-07-13T03:55:53;24.23;;;11.10;;
63801;SDS011;49949;43.060;25.624;2023-07-13T03:58:27;17.15;;;9.40;;
63801;SDS011;49949;43.060;25.624;2023-07-13T04:01:00;28.55;;;10.90;;
63801;SDS011;49949;43.060;25.624;2023-07-13T04:03:27;28.23;;;10.70;;
63801;SDS011;49949;43.060;25.624;2023-07-13T04:05:55;31.38;;;11.15;;
63801;SDS011;49949;43.060;25.624;2023-07-13T04:08:25;29.27;;;11.38;;
63801;SDS011;49949;43.060;25.624;2023-07-13T04:10:55;18.20;;;10.63;;
63801;SDS011;49949;43.060;25.624;2023-07-13T04:13:21;26.08;;;11.93;;
63801;SDS011;49949;43.060;25.624;2023-07-13T04:15:47;27.02;;;11.32;;
63801;SDS011;49949;43.060;25.624;2023-07-13T04:18:12;21.98;;;11.50;;
63801;SDS011;49949;43.060;25.624;2023-07-13T04:20:38;35.63;;;12.07;;
63801;SDS011;49949;43.060;25.624;2023-07-13T04:23:04;23.88;;;11.55;;
63801;SDS011;49949;43.060;25.624;2023-07-13T04:25:29;39.50;;;12.75;;
63801;SDS011;49949;43.060;25.624;2023-07-13T04:27:55;30.77;;;11.27;;
63801;SDS011;49949;43.060;25.624;2023-07-13T04:30:21;38.47;;;13.02;;
63801;SDS011;49949;43.060;25.624;2023-07-13T04:32:49;30.05;;;12.90;;
63801;SDS011;49949;43.060;25.624;2023-07-13T04:35:17;44.20;;;13.45;;
63801;SDS011;49949;43.060;25.624;2023-07-13T04:37:45;48.72;;;12.98;;
63801;SDS011;49949;43.060;25.624;2023-07-13T04:40:11;56.72;;;15.07;;
63801;SDS011;49949;43.060;25.624;2023-07-13T04:42:37;75.03;;;14.68;;
63801;SDS011;49949;43.060;25.624;2023-07-13T04:45:04;41.97;;;13.48;;
63801;SDS011;49949;43.060;25.624;2023-07-13T04:47:31;79.07;;;16.58;;
63801;SDS011;49949;43.060;25.624;2023-07-13T04:49:57;145.73;;;17.95;;
63801;SDS011;49949;43.060;25.624;2023-07-13T04:52:23;57.72;;;14.48;;
63801;SDS011;49949;43.060;25.624;2023-07-13T04:54:49;85.18;;;15.73;;
63801;SDS011;49949;43.060;25.624;2023-07-13T04:57:15;46.88;;;15.13;;
63801;SDS011;49949;43.060;25.624;2023-07-13T04:59:40;65.85;;;16.98;;
63801;SDS011;49949;43.060;25.624;2023-07-13T05:02:06;61.60;;;16.63;;
63801;SDS011;49949;43.060;25.624;2023-07-13T05:04:32;55.13;;;17.85;;
63801;SDS011;49949;43.060;25.624;2023-07-13T05:06:58;66.05;;;15.45;;
63801;SDS011;49949;43.060;25.624;2023-07-13T05:09:25;59.75;;;18.45;;
63801;SDS011;49949;43.060;25.624;2023-07-13T05:11:50;68.03;;;17.10;;
63801;SDS011;49949;43.060;25.624;2023-07-13T05:14:16;52.08;;;17.30;;
63801;SDS011;49949;43.060;25.624;2023-07-13T05:16:42;53.92;;;17.08;;
63801;SDS011;49949;43.060;25.624;2023-07-13T05:19:08;62.97;;;16.17;;
63801;SDS011;49949;43.060;25.624;2023-07-13T05:21:34;55.65;;;15.50;;
63801;SDS011;49949;43.060;25.624;2023-07-13T05:24:00;54.65;;;15.80;;
63801;SDS011;49949;43.060;25.624;2023-07-13T05:26:26;49.67;;;15.10;;
63801;SDS011;49949;43.060;25.624;2023-07-13T05:28:52;121.20;;;26.65;;
63801;SDS011;49949;43.060;25.624;2023-07-13T05:31:17;134.52;;;23.60;;
63801;SDS011;49949;43.060;25.624;2023-07-13T05:33:43;84.03;;;21.67;;
63801;SDS011;49949;43.060;25.624;2023-07-13T05:36:09;97.40;;;18.65;;
63801;SDS011;49949;43.060;25.624;2023-07-13T05:38:34;72.25;;;17.95;;
63801;SDS011;49949;43.060;25.624;2023-07-13T05:41:00;51.05;;;16.50;;
63801;SDS011;49949;43.060;25.624;2023-07-13T05:43:26;39.33;;;18.58;;
63801;SDS011;49949;43.060;25.624;2023-07-13T05:45:55;35.97;;;15.73;;
63801;SDS011;49949;43.060;25.624;2023-07-13T05:48:21;38.33;;;12.82;;
63801;SDS011;49949;43.060;25.624;2023-07-13T05:50:47;50.53;;;15.00;;
63801;SDS011;49949;43.060;25.624;2023-07-13T05:53:13;38.15;;;13.77;;
63801;SDS011;49949;43.060;25.624;2023-07-13T05:55:42;48.33;;;12.70;;
63801;SDS011;49949;43.060;25.624;2023-07-13T05:58:09;37.92;;;12.90;;
63801;SDS011;49949;43.060;25.624;2023-07-13T06:00:36;30.38;;;12.90;;
63801;SDS011;49949;43.060;25.624;2023-07-13T06:03:01;22.42;;;10.52;;
63801;SDS011;49949;43.060;25.624;2023-07-13T06:05:27;22.25;;;9.40;;
63801;SDS011;49949;43.060;25.624;2023-07-13T06:07:54;35.30;;;10.90;;
63801;SDS011;49949;43.060;25.624;2023-07-13T06:10:20;31.17;;;10.13;;
63801;SDS011;49949;43.060;25.624;2023-07-13T06:12:46;52.75;;;10.82;;
63801;SDS011;49949;43.060;25.624;2023-07-13T06:15:12;30.40;;;9.95;;
63801;SDS011;49949;43.060;25.624;2023-07-13T06:17:38;25.10;;;9.60;;
63801;SDS011;49949;43.060;25.624;2023-07-13T06:20:04;17.75;;;9.23;;
63801;SDS011;49949;43.060;25.624;2023-07-13T06:22:31;95.55;;;12.32;;
63801;SDS011;49949;43.060;25.624;2023-07-13T06:24:57;27.50;;;9.40;;
63801;SDS011;49949;43.060;25.624;2023-07-13T06:27:22;26.20;;;10.05;;
63801;SDS011;49949;43.060;25.624;2023-07-13T06:29:48;23.58;;;9.45;;
63801;SDS011;49949;43.060;25.624;2023-07-13T06:32:13;25.63;;;9.52;;
63801;SDS011;49949;43.060;25.624;2023-07-13T06:34:39;40.90;;;9.48;;
63801;SDS011;49949;43.060;25.624;2023-07-13T06:37:05;21.13;;;8.73;;
63801;SDS011;49949;43.060;25.624;2023-07-13T06:39:31;35.35;;;9.23;;
63801;SDS011;49949;43.060;25.624;2023-07-13T06:41:57;27.10;;;8.77;;
63801;SDS011;49949;43.060;25.624;2023-07-13T06:44:23;27.65;;;8.88;;
63801;SDS011;49949;43.060;25.624;2023-07-13T06:46:50;17.50;;;8.73;;
63801;SDS011;49949;43.060;25.624;2023-07-13T06:49:16;24.42;;;7.68;;
63801;SDS011;49949;43.060;25.624;2023-07-13T06:51:41;22.48;;;8.52;;
63801;SDS011;49949;43.060;25.624;2023-07-13T06:54:07;43.30;;;8.38;;
63801;SDS011;49949;43.060;25.624;2023-07-13T06:56:33;27.45;;;7.85;;
63801;SDS011;49949;43.060;25.624;2023-07-13T06:58:59;20.92;;;7.75;;
63801;SDS011;49949;43.060;25.624;2023-07-13T07:01:25;27.08;;;8.00;;
63801;SDS011;49949;43.060;25.624;2023-07-13T07:03:51;13.15;;;7.38;;
63801;SDS011;49949;43.060;25.624;2023-07-13T07:06:17;25.33;;;7.97;;
63801;SDS011;49949;43.060;25.624;2023-07-13T07:08:45;15.63;;;7.30;;
63801;SDS011;49949;43.060;25.624;2023-07-13T07:11:12;12.60;;;6.90;;
63801;SDS011;49949;43.060;25.624;2023-07-13T07:13:39;20.15;;;7.05;;
63801;SDS011;49949;43.060;25.624;2023-07-13T07:16:04;14.95;;;6.70;;
63801;SDS011;49949;43.060;25.624;2023-07-13T07:18:30;10.30;;;6.60;;
63801;SDS011;49949;43.060;25.624;2023-07-13T07:20:56;12.18;;;7.25;;
63801;SDS011;49949;43.060;25.624;2023-07-13T07:23:22;17.60;;;7.72;;
63801;SDS011;49949;43.060;25.624;2023-07-13T07:25:47;14.85;;;7.20;;
63801;SDS011;49949;43.060;25.624;2023-07-13T07:28:14;15.80;;;6.75;;
63801;SDS011;49949;43.060;25.624;2023-07-13T07:30:43;14.75;;;6.70;;
63801;SDS011;49949;43.060;25.624;2023-07-13T07:33:10;11.95;;;6.40;;
63801;SDS011;49949;43.060;25.624;2023-07-13T07:35:35;12.65;;;6.72;;
63801;SDS011;49949;43.060;25.624;2023-07-13T07:38:01;13.32;;;6.30;;
63801;SDS011;49949;43.060;25.624;2023-07-13T07:40:27;18.58;;;6.25;;
63801;SDS011;49949;43.060;25.624;2023-07-13T07:42:53;13.18;;;5.90;;
63801;SDS011;49949;43.060;25.624;2023-07-13T07:45:19;16.08;;;6.03;;
63801;SDS011;49949;43.060;25.624;2023-07-13T07:47:46;12.48;;;6.38;;
63801;SDS011;49949;43.060;25.624;2023-07-13T07:50:12;10.40;;;6.03;;
63801;SDS011;49949;43.060;25.624;2023-07-13T07:52:38;11.20;;;5.70;;
63801;SDS011;49949;43.060;25.624;2023-07-13T07:55:04;13.00;;;5.88;;
63801;SDS011;49949;43.060;25.624;2023-07-13T07:57:31;13.00;;;5.65;;
63801;SDS011;49949;43.060;25.624;2023-07-13T07:59:57;9.25;;;5.85;;
63801;SDS011;49949;43.060;25.624;2023-07-13T08:02:24;12.45;;;6.50;;
63801;SDS011;49949;43.060;25.624;2023-07-13T08:04:50;14.23;;;6.40;;
63801;SDS011;49949;43.060;25.624;2023-07-13T08:07:16;14.93;;;5.28;;
63801;SDS011;49949;43.060;25.624;2023-07-13T08:09:42;15.18;;;6.25;;
63801;SDS011;49949;43.060;25.624;2023-07-13T08:12:08;16.35;;;5.63;;
63801;SDS011;49949;43.060;25.624;2023-07-13T08:14:34;18.33;;;5.65;;
63801;SDS011;49949;43.060;25.624;2023-07-13T08:16:59;15.40;;;6.05;;
63801;SDS011;49949;43.060;25.624;2023-07-13T08:19:25;13.07;;;5.75;;
63801;SDS011;49949;43.060;25.624;2023-07-13T08:21:51;12.20;;;5.68;;
63801;SDS011;49949;43.060;25.624;2023-07-13T08:24:16;13.13;;;6.28;;
63801;SDS011;49949;43.060;25.624;2023-07-13T08:26:43;16.73;;;7.00;;
63801;SDS011;49949;43.060;25.624;2023-07-13T08:29:11;17.65;;;6.45;;
63801;SDS011;49949;43.060;25.624;2023-07-13T08:31:36;21.25;;;6.63;;
63801;SDS011;49949;43.060;25.624;2023-07-13T08:34:02;18.00;;;5.32;;
63801;SDS011;49949;43.060;25.624;2023-07-13T08:36:28;7.55;;;4.07;;
63801;SDS011;49949;43.060;25.624;2023-07-13T08:38:54;13.77;;;4.97;;
63801;SDS011;49949;43.060;25.624;2023-07-13T08:41:20;7.95;;;4.22;;
63801;SDS011;49949;43.060;25.624;2023-07-13T08:43:51;10.68;;;4.10;;
63801;SDS011;49949;43.060;25.624;2023-07-13T08:46:26;11.90;;;5.65;;
63801;SDS011;49949;43.060;25.624;2023-07-13T08:49:01;28.83;;;5.53;;
63801;SDS011;49949;43.060;25.624;2023-07-13T08:51:43;7.93;;;3.77;;
63801;SDS011;49949;43.060;25.624;2023-07-13T08:54:30;11.57;;;4.22;;
63801;SDS011;49949;43.060;25.624;2023-07-13T08:57:03;36.03;;;5.32;;
63801;SDS011;49949;43.060;25.624;2023-07-13T08:59:42;31.75;;;4.70;;
63801;SDS011;49949;43.060;25.624;2023-07-13T09:02:26;13.63;;;4.57;;
63801;SDS011;49949;43.060;25.624;2023-07-13T09:05:12;10.77;;;3.90;;
63801;SDS011;49949;43.060;25.624;2023-07-13T09:10:44;6.97;;;4.40;;
63801;SDS011;49949;43.060;25.624;2023-07-13T09:16:08;11.75;;;3.67;;
63801;SDS011;49949;43.060;25.624;2023-07-13T09:18:41;11.35;;;4.13;;
63801;SDS011;49949;43.060;25.624;2023-07-13T09:23:45;5.55;;;3.30;;
63801;SDS011;49949;43.060;25.624;2023-07-13T09:26:14;7.22;;;4.00;;
63801;SDS011;49949;43.060;25.624;2023-07-13T09:29:20;7.85;;;3.83;;
63801;SDS011;49949;43.060;25.624;2023-07-13T09:31:39;4.65;;;3.55;;
63801;SDS011;49949;43.060;25.624;2023-07-13T09:34:10;18.20;;;5.22;;
63801;SDS011;49949;43.060;25.624;2023-07-13T09:36:37;7.30;;;3.70;;
63801;SDS011;49949;43.060;25.624;2023-07-13T09:44:10;13.00;;;3.90;;
63801;SDS011;49949;43.060;25.624;2023-07-13T09:46:38;11.10;;;3.20;;
63801;SDS011;49949;43.060;25.624;2023-07-13T09:49:09;14.63;;;4.30;;
63801;SDS011;49949;43.060;25.624;2023-07-13T09:51:36;16.92;;;5.57;;
63801;SDS011;49949;43.060;25.624;2023-07-13T09:54:21;9.40;;;3.65;;
63801;SDS011;49949;43.060;25.624;2023-07-13T09:56:53;6.32;;;3.50;;
63801;SDS011;49949;43.060;25.624;2023-07-13T09:59:26;8.95;;;3.42;;
63801;SDS011;49949;43.060;25.624;2023-07-13T10:01:54;13.30;;;3.63;;
63801;SDS011;49949;43.060;25.624;2023-07-13T10:04:22;29.73;;;4.40;;
63801;SDS011;49949;43.060;25.624;2023-07-13T10:07:07;4.18;;;2.95;;
63801;SDS011;49949;43.060;25.624;2023-07-13T10:09:36;8.88;;;3.65;;
63801;SDS011;49949;43.060;25.624;2023-07-13T10:12:03;9.60;;;3.30;;
63801;SDS011;49949;43.060;25.624;2023-07-13T10:14:38;19.85;;;4.68;;
63801;SDS011;49949;43.060;25.624;2023-07-13T10:17:08;11.85;;;3.38;;
63801;SDS011;49949;43.060;25.624;2023-07-13T10:19:37;8.00;;;3.03;;
63801;SDS011;49949;43.060;25.624;2023-07-13T10:25:17;9.77;;;3.15;;
63801;SDS011;49949;43.060;25.624;2023-07-13T10:27:47;13.33;;;3.83;;
63801;SDS011;49949;43.060;25.624;2023-07-13T10:30:24;46.03;;;4.70;;
63801;SDS011;49949;43.060;25.624;2023-07-13T10:32:57;11.10;;;4.35;;
63801;SDS011;49949;43.060;25.624;2023-07-13T10:35:30;9.57;;;3.80;;
63801;SDS011;49949;43.060;25.624;2023-07-13T10:37:59;5.93;;;3.10;;
63801;SDS011;49949;43.060;25.624;2023-07-13T10:40:38;12.63;;;3.38;;
63801;SDS011;49949;43.060;25.624;2023-07-13T10:43:28;19.70;;;3.50;;
63801;SDS011;49949;43.060;25.624;2023-07-13T10:46:05;10.63;;;3.20;;
63801;SDS011;49949;43.060;25.624;2023-07-13T10:48:33;17.13;;;3.10;;
63801;SDS011;49949;43.060;25.624;2023-07-13T10:51:02;19.92;;;4.38;;
63801;SDS011;49949;43.060;25.624;2023-07-13T10:53:32;12.57;;;3.70;;
63801;SDS011;49949;43.060;25.624;2023-07-13T10:56:05;7.85;;;2.85;;
63801;SDS011;49949;43.060;25.624;2023-07-13T10:58:45;9.98;;;3.53;;
63801;SDS011;49949;43.060;25.624;2023-07-13T11:01:13;8.40;;;3.47;;
63801;SDS011;49949;43.060;25.624;2023-07-13T11:18:44;10.60;;;3.88;;
63801;SDS011;49949;43.060;25.624;2023-07-13T11:21:17;7.07;;;2.65;;
63801;SDS011;49949;43.060;25.624;2023-07-13T11:24:00;7.03;;;2.27;;
63801;SDS011;49949;43.060;25.624;2023-07-13T11:34:33;4.78;;;2.40;;
63801;SDS011;49949;43.060;25.624;2023-07-13T11:37:02;4.70;;;2.80;;
63801;SDS011;49949;43.060;25.624;2023-07-13T11:39:31;4.07;;;3.10;;
63801;SDS011;49949;43.060;25.624;2023-07-13T11:42:00;12.38;;;4.32;;
63801;SDS011;49949;43.060;25.624;2023-07-13T11:44:32;10.60;;;3.78;;
63801;SDS011;49949;43.060;25.624;2023-07-13T11:47:10;10.30;;;4.78;;
63801;SDS011;49949;43.060;25.624;2023-07-13T11:49:44;18.02;;;4.40;;
63801;SDS011;49949;43.060;25.624;2023-07-13T11:52:14;5.60;;;3.13;;
63801;SDS011;49949;43.060;25.624;2023-07-13T11:54:49;15.52;;;4.97;;
63801;SDS011;49949;43.060;25.624;2023-07-13T11:57:26;7.83;;;3.60;;
63801;SDS011;49949;43.060;25.624;2023-07-13T11:59:56;10.50;;;4.07;;
63801;SDS011;49949;43.060;25.624;2023-07-13T12:02:26;17.90;;;3.72;;
63801;SDS011;49949;43.060;25.624;2023-07-13T12:04:55;20.50;;;4.20;;
63801;SDS011;49949;43.060;25.624;2023-07-13T12:07:22;16.65;;;5.28;;
63801;SDS011;49949;43.060;25.624;2023-07-13T12:09:47;8.85;;;3.38;;
63801;SDS011;49949;43.060;25.624;2023-07-13T12:12:18;6.00;;;2.83;;
63801;SDS011;49949;43.060;25.624;2023-07-13T12:14:46;15.80;;;4.23;;
63801;SDS011;49949;43.060;25.624;2023-07-13T12:17:16;9.38;;;4.28;;
63801;SDS011;49949;43.060;25.624;2023-07-13T12:19:45;6.97;;;4.72;;
63801;SDS011;49949;43.060;25.624;2023-07-13T12:22:12;4.97;;;2.72;;
63801;SDS011;49949;43.060;25.624;2023-07-13T12:24:41;12.68;;;3.45;;
63801;SDS011;49949;43.060;25.624;2023-07-13T12:27:19;6.18;;;3.03;;
63801;SDS011;49949;43.060;25.624;2023-07-13T12:29:58;7.28;;;3.90;;
63801;SDS011;49949;43.060;25.624;2023-07-13T12:32:25;7.10;;;3.00;;
63801;SDS011;49949;43.060;25.624;2023-07-13T12:34:56;5.63;;;3.58;;
63801;SDS011;49949;43.060;25.624;2023-07-13T12:37:33;5.22;;;2.72;;
63801;SDS011;49949;43.060;25.624;2023-07-13T12:40:00;15.55;;;3.72;;
63801;SDS011;49949;43.060;25.624;2023-07-13T12:42:27;23.30;;;5.22;;
63801;SDS011;49949;43.060;25.624;2023-07-13T12:45:00;9.43;;;3.22;;
63801;SDS011;49949;43.060;25.624;2023-07-13T12:47:29;5.63;;;2.80;;
63801;SDS011;49949;43.060;25.624;2023-07-13T12:49:57;10.80;;;3.35;;
63801;SDS011;49949;43.060;25.624;2023-07-13T12:52:28;21.90;;;3.83;;
63801;SDS011;49949;43.060;25.624;2023-07-13T12:55:17;9.20;;;3.75;;
63801;SDS011;49949;43.060;25.624;2023-07-13T13:00:31;6.38;;;3.15;;
63801;SDS011;49949;43.060;25.624;2023-07-13T13:03:00;9.03;;;3.13;;
63801;SDS011;49949;43.060;25.624;2023-07-13T13:05:30;12.57;;;3.60;;
63801;SDS011;49949;43.060;25.624;2023-07-13T13:07:58;6.65;;;3.00;;
63801;SDS011;49949;43.060;25.624;2023-07-13T13:10:25;4.78;;;2.38;;
63801;SDS011;49949;43.060;25.624;2023-07-13T13:12:51;6.43;;;3.08;;
63801;SDS011;49949;43.060;25.624;2023-07-13T13:15:17;12.13;;;2.92;;
63801;SDS011;49949;43.060;25.624;2023-07-13T13:17:43;5.38;;;2.78;;
63801;SDS011;49949;43.060;25.624;2023-07-13T13:20:16;14.30;;;4.00;;
63801;SDS011;49949;43.060;25.624;2023-07-13T13:22:48;13.10;;;3.83;;
63801;SDS011;49949;43.060;25.624;2023-07-13T13:25:14;8.35;;;3.45;;
63801;SDS011;49949;43.060;25.624;2023-07-13T13:27:40;12.63;;;3.58;;
63801;SDS011;49949;43.060;25.624;2023-07-13T13:30:14;26.85;;;3.95;;
63801;SDS011;49949;43.060;25.624;2023-07-13T13:32:42;8.70;;;3.13;;
63801;SDS011;49949;43.060;25.624;2023-07-13T13:35:14;10.07;;;6.18;;
63801;SDS011;49949;43.060;25.624;2023-07-13T13:37:40;13.98;;;3.47;;
63801;SDS011;49949;43.060;25.624;2023-07-13T13:40:17;11.95;;;3.85;;
63801;SDS011;49949;43.060;25.624;2023-07-13T13:42:44;14.60;;;3.97;;
63801;SDS011;49949;43.060;25.624;2023-07-13T13:45:10;9.68;;;3.33;;
63801;SDS011;49949;43.060;25.624;2023-07-13T13:47:37;6.80;;;3.20;;
63801;SDS011;49949;43.060;25.624;2023-07-13T13:50:37;14.50;;;3.30;;
63801;SDS011;49949;43.060;25.624;2023-07-13T13:52:56;4.78;;;2.70;;
63801;SDS011;49949;43.060;25.624;2023-07-13T13:55:22;27.35;;;4.40;;
63801;SDS011;49949;43.060;25.624;2023-07-13T13:57:49;9.48;;;3.80;;
63801;SDS011;49949;43.060;25.624;2023-07-13T14:00:16;7.20;;;4.47;;
63801;SDS011;49949;43.060;25.624;2023-07-13T14:02:46;39.78;;;4.82;;
63801;SDS011;49949;43.060;25.624;2023-07-13T14:05:13;21.20;;;5.20;;
63801;SDS011;49949;43.060;25.624;2023-07-13T14:07:42;13.23;;;3.70;;
63801;SDS011;49949;43.060;25.624;2023-07-13T14:10:13;11.48;;;3.50;;
63801;SDS011;49949;43.060;25.624;2023-07-13T14:12:41;10.40;;;2.78;;
63801;SDS011;49949;43.060;25.624;2023-07-13T14:15:28;6.05;;;3.13;;
63801;SDS011;49949;43.060;25.624;2023-07-13T14:17:55;17.48;;;4.85;;
63801;SDS011;49949;43.060;25.624;2023-07-13T14:20:23;13.05;;;4.10;;
63801;SDS011;49949;43.060;25.624;2023-07-13T14:22:50;21.90;;;4.93;;
63801;SDS011;49949;43.060;25.624;2023-07-13T14:25:17;14.88;;;3.83;;
63801;SDS011;49949;43.060;25.624;2023-07-13T14:27:44;10.43;;;3.72;;
63801;SDS011;49949;43.060;25.624;2023-07-13T14:32:39;7.97;;;3.25;;
63801;SDS011;49949;43.060;25.624;2023-07-13T14:35:05;7.68;;;3.55;;
63801;SDS011;49949;43.060;25.624;2023-07-13T14:37:32;13.77;;;3.17;;
63801;SDS011;49949;43.060;25.624;2023-07-13T14:39:59;6.78;;;3.25;;
63801;SDS011;49949;43.060;25.624;2023-07-13T14:42:25;6.85;;;2.90;;
63801;SDS011;49949;43.060;25.624;2023-07-13T14:44:50;14.43;;;3.63;;
63801;SDS011;49949;43.060;25.624;2023-07-13T14:47:16;9.15;;;3.00;;
63801;SDS011;49949;43.060;25.624;2023-07-13T14:49:43;9.15;;;3.17;;
63801;SDS011;49949;43.060;25.624;2023-07-13T14:52:19;9.75;;;4.07;;
63801;SDS011;49949;43.060;25.624;2023-07-13T14:54:48;12.43;;;6.95;;
63801;SDS011;49949;43.060;25.624;2023-07-13T14:57:17;14.48;;;10.80;;
63801;SDS011;49949;43.060;25.624;2023-07-13T15:02:14;8.05;;;4.53;;
63801;SDS011;49949;43.060;25.624;2023-07-13T15:04:45;9.02;;;4.15;;
63801;SDS011;49949;43.060;25.624;2023-07-13T15:07:11;12.80;;;3.60;;
63801;SDS011;49949;43.060;25.624;2023-07-13T15:09:38;6.65;;;3.25;;
63801;SDS011;49949;43.060;25.624;2023-07-13T15:12:04;10.32;;;3.35;;
63801;SDS011;49949;43.060;25.624;2023-07-13T15:14:30;16.60;;;3.70;;
63801;SDS011;49949;43.060;25.624;2023-07-13T15:16:57;5.32;;;3.25;;